Time;durP1;ratioP1;P1;durP2;ratioP2;P2;SDS_P1;SDS_P2;PMS_P1;PMS_P2;Temp;Humidity;BMP_temperature;BMP_pressure;BME280_temperature;BME280_humidity;BME280_pressure;Samples;Min_cycle;Max_cycle;Signal;HPM_P1;HPM_P2
2022/06/25 00:00:34;;;;;;;35.37;32.27;;;16.30;89.10;;;;;;5003430;28;20405;-67
2022/06/25 00:03:00;;;;;;;40.17;37.27;;;16.30;89.10;;;;;;5004292;28;20615;-67
2022/06/25 00:05:28;;;;;;;46.57;43.17;;;16.30;89.30;;;;;;5021092;28;20045;-67
2022/06/25 00:07:57;;;;;;;40.97;37.83;;;16.20;89.50;;;;;;4997663;28;20127;-67
2022/06/25 00:10:24;;;;;;;36.90;33.90;;;16.20;89.70;;;;;;5002297;28;20293;-67
2022/06/25 00:12:50;;;;;;;46.57;43.10;;;16.20;89.60;;;;;;5005238;28;20394;-67
2022/06/25 00:15:16;;;;;;;36.47;33.37;;;16.20;89.30;;;;;;5010800;28;20308;-67
2022/06/25 00:17:42;;;;;;;40.57;37.20;;;16.10;89.40;;;;;;5004041;28;20037;-67
2022/06/25 00:20:09;;;;;;;48.67;45.17;;;16.10;89.40;;;;;;4987403;28;20288;-67
2022/06/25 00:22:34;;;;;;;36.23;33.43;;;16.10;89.70;;;;;;4962730;28;20402;-67
2022/06/25 00:25:00;;;;;;;31.50;28.73;;;16.00;89.60;;;;;;4973774;28;20293;-67
2022/06/25 00:27:26;;;;;;;43.73;40.77;;;16.00;89.70;;;;;;5003228;28;20041;-67
2022/06/25 00:29:52;;;;;;;33.43;30.57;;;16.00;90.00;;;;;;5005357;28;20335;-67
2022/06/25 00:32:18;;;;;;;30.17;27.50;;;16.00;90.00;;;;;;5007811;28;20042;-67
2022/06/25 00:34:44;;;;;;;41.93;38.67;;;16.00;90.10;;;;;;5007337;28;20402;-67
2022/06/25 00:37:10;;;;;;;31.37;28.23;;;15.90;90.20;;;;;;4988657;28;20034;-67
2022/06/25 00:39:37;;;;;;;41.83;38.53;;;15.90;90.40;;;;;;5001228;28;20060;-67
2022/06/25 00:42:08;;;;;;;41.83;38.77;;;15.90;90.40;;;;;;4987223;28;20384;-67
2022/06/25 00:44:33;;;;;;;38.40;35.07;;;15.90;90.90;;;;;;5023763;28;20289;-67
2022/06/25 00:46:59;;;;;;;31.67;28.77;;;15.80;90.80;;;;;;5022572;28;20306;-67
2022/06/25 00:49:25;;;;;;;40.57;37.37;;;15.80;90.50;;;;;;5006470;28;20046;-67
2022/06/25 00:51:51;;;;;;;48.87;44.40;;;15.80;91.10;;;;;;4991235;28;20042;-67
2022/06/25 00:54:19;;;;;;;38.10;35.00;;;15.80;90.70;;;;;;4991132;28;20573;-67
2022/06/25 00:56:49;;;;;;;50.37;46.60;;;15.80;90.70;;;;;;5006634;28;20288;-67
2022/06/25 00:59:19;;;;;;;36.97;33.90;;;15.80;90.90;;;;;;4996289;28;20656;-67
2022/06/25 01:01:45;;;;;;;32.03;27.47;;;15.80;90.90;;;;;;5003751;28;20611;-67
2022/06/25 01:04:10;;;;;;;35.53;32.37;;;15.70;91.30;;;;;;5006815;28;20304;-67
2022/06/25 01:06:36;;;;;;;41.77;38.43;;;15.70;91.20;;;;;;5005566;28;20100;-67
2022/06/25 01:09:02;;;;;;;43.47;40.00;;;15.70;91.40;;;;;;4989704;28;20048;-67
2022/06/25 01:11:27;;;;;;;41.07;37.80;;;15.70;91.60;;;;;;4996933;28;20054;-67
2022/06/25 01:13:53;;;;;;;40.43;37.03;;;15.70;91.50;;;;;;5006901;28;20092;-67
2022/06/25 01:16:21;;;;;;;35.37;32.33;;;15.70;91.70;;;;;;4985264;28;20495;-67
2022/06/25 01:18:47;;;;;;;36.70;33.37;;;15.60;91.70;;;;;;5005678;28;20057;-67
2022/06/25 01:21:13;;;;;;;44.67;40.83;;;15.60;91.80;;;;;;4998361;28;20356;-67
2022/06/25 01:23:40;;;;;;;41.97;38.10;;;15.60;91.50;;;;;;5003984;28;20285;-67
2022/06/25 01:26:06;;;;;;;64.70;60.10;;;15.60;91.80;;;;;;5003480;28;20292;-67
2022/06/25 01:28:32;;;;;;;46.70;42.90;;;15.60;92.00;;;;;;4995623;28;20871;-67
2022/06/25 01:30:58;;;;;;;38.57;34.93;;;15.60;91.80;;;;;;5006402;28;20560;-67
2022/06/25 01:33:23;;;;;;;45.40;41.43;;;15.60;92.30;;;;;;5009656;28;20077;-68
2022/06/25 01:35:49;;;;;;;48.40;44.60;;;15.70;92.30;;;;;;5003868;28;20069;-67
2022/06/25 01:38:15;;;;;;;50.53;46.60;;;15.70;92.20;;;;;;5004553;28;20046;-67
2022/06/25 01:40:40;;;;;;;41.40;38.07;;;15.70;92.20;;;;;;5004835;28;20034;-67
2022/06/25 01:43:06;;;;;;;46.37;42.63;;;15.70;92.30;;;;;;5006376;28;20498;-67
2022/06/25 01:45:35;;;;;;;31.73;28.57;;;15.70;92.30;;;;;;5005987;28;20041;-67
2022/06/25 01:48:02;;;;;;;35.27;32.07;;;15.70;92.20;;;;;;4999252;28;20045;-67
2022/06/25 01:50:29;;;;;;;36.80;33.53;;;15.80;92.20;;;;;;5009608;28;20296;-68
2022/06/25 01:52:55;;;;;;;31.37;28.50;;;15.80;92.00;;;;;;5002181;28;20309;-67
2022/06/25 01:55:21;;;;;;;40.10;36.33;;;15.80;92.40;;;;;;4988576;28;20375;-68
2022/06/25 01:57:48;;;;;;;41.60;38.00;;;15.90;92.50;;;;;;5005865;28;20041;-68
2022/06/25 02:00:18;;;;;;;38.10;34.57;;;15.90;92.20;;;;;;5005791;28;20360;-67
2022/06/25 02:02:44;;;;;;;37.43;34.23;;;15.90;92.20;;;;;;5006633;28;20299;-67
2022/06/25 02:05:12;;;;;;;41.63;38.10;;;16.00;92.40;;;;;;4990314;28;20331;-68
2022/06/25 02:07:38;;;;;;;35.40;32.30;;;16.00;92.30;;;;;;5005460;28;20379;-67
2022/06/25 02:10:04;;;;;;;46.30;42.63;;;16.00;92.20;;;;;;5022542;28;20756;-67
2022/06/25 02:12:30;;;;;;;49.93;46.33;;;16.00;92.30;;;;;;4987046;28;20376;-67
2022/06/25 02:14:56;;;;;;;51.67;47.83;;;16.00;92.50;;;;;;5006961;28;20380;-67
2022/06/25 02:17:22;;;;;;;55.73;51.57;;;16.00;92.40;;;;;;5003637;28;20044;-67
2022/06/25 02:19:47;;;;;;;38.53;35.33;;;16.00;92.10;;;;;;5005308;28;20045;-67
2022/06/25 02:22:14;;;;;;;38.80;35.57;;;16.00;92.40;;;;;;5006192;28;20230;-67
2022/06/25 02:24:44;;;;;;;36.73;33.30;;;16.00;92.60;;;;;;5006151;28;20045;-67
2022/06/25 02:27:11;;;;;;;36.50;33.30;;;16.00;92.20;;;;;;5000065;28;20328;-67
2022/06/25 02:29:36;;;;;;;37.00;33.90;;;16.00;92.40;;;;;;5001671;28;20642;-67
2022/06/25 02:32:03;;;;;;;41.90;38.60;;;16.00;92.30;;;;;;5005679;28;20289;-67
2022/06/25 02:34:29;;;;;;;44.37;41.00;;;16.00;92.10;;;;;;5005648;28;20037;-67
2022/06/25 02:36:55;;;;;;;37.30;33.97;;;16.00;92.10;;;;;;5005795;28;20285;-67
2022/06/25 02:39:20;;;;;;;39.40;36.03;;;16.00;92.20;;;;;;5005091;28;20038;-67
2022/06/25 02:41:46;;;;;;;42.83;39.73;;;16.00;92.70;;;;;;5006368;28;20042;-67
2022/06/25 02:44:12;;;;;;;49.40;45.87;;;16.00;92.50;;;;;;4989532;28;20076;-67
2022/06/25 02:46:37;;;;;;;40.73;37.60;;;16.00;92.50;;;;;;5020710;28;20441;-68
2022/06/25 02:49:03;;;;;;;37.40;34.30;;;16.00;92.70;;;;;;5004316;28;20054;-68
2022/06/25 02:51:29;;;;;;;42.90;39.63;;;16.00;92.70;;;;;;5005529;28;20049;-67
2022/06/25 02:53:55;;;;;;;39.03;36.10;;;16.00;92.80;;;;;;5005496;28;20046;-67
2022/06/25 02:59:06;;;;;;;32.83;30.38;;;16.00;92.70;;;;;;5018743;28;20300;-68
2022/06/25 03:01:33;;;;;;;32.20;29.40;;;15.90;92.50;;;;;;4999399;28;20042;-67
2022/06/25 03:03:58;;;;;;;41.87;38.63;;;15.90;92.50;;;;;;5001849;28;20038;-68
2022/06/25 03:06:25;;;;;;;44.73;41.40;;;15.90;92.80;;;;;;4992558;28;20796;-67
2022/06/25 03:08:50;;;;;;;39.60;36.63;;;15.90;92.90;;;;;;5014105;28;20066;-67
2022/06/25 03:11:17;;;;;;;33.67;30.97;;;15.90;92.90;;;;;;4975011;28;20273;-67
2022/06/25 03:13:43;;;;;;;35.97;33.43;;;15.90;92.80;;;;;;5002153;28;20053;-67
2022/06/25 03:16:09;;;;;;;41.10;38.13;;;15.90;93.10;;;;;;4998903;28;20292;-67
2022/06/25 03:18:35;;;;;;;29.73;27.10;;;15.90;93.10;;;;;;5003406;28;20069;-67
2022/06/25 03:21:01;;;;;;;29.13;26.67;;;15.90;92.90;;;;;;4998474;28;20096;-67
2022/06/25 03:23:27;;;;;;;38.60;35.67;;;15.90;93.20;;;;;;5001752;28;20288;-67
2022/06/25 03:25:53;;;;;;;41.00;37.90;;;15.90;93.10;;;;;;4980161;28;20057;-67
2022/06/25 03:28:19;;;;;;;30.10;27.83;;;16.00;93.20;;;;;;5001630;28;21104;-67
2022/06/25 03:30:45;;;;;;;45.53;42.73;;;16.00;93.10;;;;;;5005028;28;20049;-67
2022/06/25 03:33:12;;;;;;;41.97;39.13;;;16.00;92.90;;;;;;5005547;28;20313;-67
2022/06/25 03:35:37;;;;;;;36.03;33.33;;;16.00;92.70;;;;;;5005139;28;20848;-67
2022/06/25 03:38:03;;;;;;;37.77;35.23;;;16.00;92.70;;;;;;4989132;28;20308;-67
2022/06/25 03:40:29;;;;;;;40.90;37.90;;;16.10;92.80;;;;;;4978896;28;20582;-67
2022/06/25 03:42:55;;;;;;;39.30;36.63;;;16.10;92.50;;;;;;5005852;28;20081;-67
2022/06/25 03:45:20;;;;;;;47.50;44.67;;;16.20;92.70;;;;;;5006199;28;20072;-67
2022/06/25 03:47:50;;;;;;;37.17;34.57;;;16.20;92.50;;;;;;4990129;28;20034;-67
2022/06/25 03:50:22;;;;;;;43.60;40.80;;;16.20;92.60;;;;;;5001819;28;20050;-68
2022/06/25 03:52:50;;;;;;;44.23;41.37;;;16.20;92.30;;;;;;4985054;28;20773;-68
2022/06/25 03:55:16;;;;;;;35.87;33.30;;;16.30;92.40;;;;;;4992120;28;20308;-68
2022/06/25 03:57:42;;;;;;;30.00;27.50;;;16.20;92.30;;;;;;5009390;28;21025;-68
2022/06/25 04:00:09;;;;;;;37.73;35.23;;;16.20;92.30;;;;;;5008158;28;20289;-68
2022/06/25 04:02:36;;;;;;;53.43;50.03;;;16.30;92.50;;;;;;5007401;28;20045;-68
2022/06/25 04:05:02;;;;;;;44.00;41.10;;;16.30;92.50;;;;;;4998428;28;20281;-68
2022/06/25 04:07:28;;;;;;;39.40;36.67;;;16.30;92.30;;;;;;4981190;28;20288;-68
2022/06/25 04:09:53;;;;;;;33.20;30.80;;;16.30;91.90;;;;;;5002853;28;20285;-68
2022/06/25 04:12:19;;;;;;;45.57;42.83;;;16.30;92.00;;;;;;5008739;28;20141;-68
2022/06/25 04:14:45;;;;;;;37.47;34.90;;;16.40;92.10;;;;;;5008834;28;20594;-68
2022/06/25 04:17:12;;;;;;;44.33;41.60;;;16.40;91.80;;;;;;5022574;28;20156;-68
2022/06/25 04:19:41;;;;;;;39.70;37.07;;;16.40;92.10;;;;;;5006619;28;20100;-68
2022/06/25 04:22:11;;;;;;;40.07;37.03;;;16.40;91.80;;;;;;5006829;28;20375;-68
2022/06/25 04:24:38;;;;;;;71.90;67.77;;;16.50;92.20;;;;;;5008070;28;20389;-68
2022/06/25 04:27:05;;;;;;;23.13;21.40;;;16.50;92.50;;;;;;5008954;28;20292;-68
2022/06/25 04:29:31;;;;;;;28.27;26.03;;;16.60;92.30;;;;;;5006598;28;20825;-69
2022/06/25 04:31:57;;;;;;;28.30;26.37;;;16.60;92.10;;;;;;4983830;28;20289;-69
2022/06/25 04:34:23;;;;;;;28.83;26.83;;;16.60;92.30;;;;;;5022414;28;20045;-69
2022/06/25 04:36:49;;;;;;;33.40;31.03;;;16.80;92.60;;;;;;4999676;28;20285;-69
2022/06/25 04:39:15;;;;;;;32.63;30.20;;;17.30;93.10;;;;;;5007661;28;20700;-69
2022/06/25 04:41:40;;;;;;;31.87;29.73;;;18.10;91.50;;;;;;5006350;28;20285;-68
2022/06/25 04:44:06;;;;;;;39.47;36.87;;;18.90;88.80;;;;;;5007694;28;20129;-68
2022/06/25 04:46:32;;;;;;;42.47;39.83;;;19.60;85.70;;;;;;5008283;28;20048;-68
2022/06/25 04:48:58;;;;;;;47.67;44.97;;;20.20;83.90;;;;;;4986180;28;20045;-69
2022/06/25 04:51:25;;;;;;;44.10;41.33;;;20.80;81.50;;;;;;4991562;28;20064;-69
2022/06/25 04:53:55;;;;;;;43.97;41.17;;;21.20;79.30;;;;;;5004291;28;20301;-69
2022/06/25 04:56:22;;;;;;;52.83;49.80;;;21.60;78.10;;;;;;4997653;28;20781;-68
2022/06/25 04:58:48;;;;;;;63.27;59.67;;;21.90;76.20;;;;;;5006195;28;20042;-68
2022/06/25 05:01:13;;;;;;;62.83;59.40;;;22.20;75.30;;;;;;4998936;28;20049;-69
2022/06/25 05:03:39;;;;;;;40.23;37.93;;;22.50;74.70;;;;;;5005921;28;20045;-69
2022/06/25 05:06:06;;;;;;;62.20;58.43;;;22.70;73.20;;;;;;4997573;28;20486;-69
2022/06/25 05:08:32;;;;;;;25.10;23.53;;;22.80;72.80;;;;;;4983965;28;20045;-69
2022/06/25 05:10:58;;;;;;;34.93;32.67;;;22.90;71.80;;;;;;5004244;28;20065;-69
2022/06/25 05:13:24;;;;;;;33.63;31.70;;;23.00;71.10;;;;;;4996979;28;20049;-69
2022/06/25 05:15:49;;;;;;;47.47;44.80;;;23.20;70.50;;;;;;5002717;28;20042;-67
2022/06/25 05:18:15;;;;;;;39.47;37.27;;;23.60;70.70;;;;;;5009731;28;20160;-67
2022/06/25 05:20:43;;;;;;;51.03;48.23;;;23.90;69.90;;;;;;5006024;28;20498;-67
2022/06/25 05:23:09;;;;;;;28.00;26.30;;;24.20;68.50;;;;;;5005311;28;20057;-67
2022/06/25 05:25:35;;;;;;;42.23;39.67;;;24.30;67.80;;;;;;5002201;28;20089;-67
2022/06/25 05:28:02;;;;;;;35.67;33.57;;;24.40;67.20;;;;;;4990333;28;20123;-67
2022/06/25 05:30:28;;;;;;;40.93;38.17;;;24.50;66.20;;;;;;5021905;28;20394;-67
2022/06/25 05:32:53;;;;;;;37.40;35.20;;;24.40;65.90;;;;;;5006749;28;20251;-67
2022/06/25 05:35:20;;;;;;;37.80;35.70;;;24.50;66.60;;;;;;5006847;28;20128;-67
2022/06/25 05:37:45;;;;;;;39.03;36.60;;;24.60;66.40;;;;;;5006871;28;20051;-67
2022/06/25 05:40:11;;;;;;;47.03;44.17;;;24.80;65.70;;;;;;5005829;28;20050;-67
2022/06/25 05:42:37;;;;;;;41.03;38.57;;;24.90;64.80;;;;;;5004569;28;20042;-67
2022/06/25 05:45:04;;;;;;;36.83;34.80;;;24.80;65.00;;;;;;4990030;28;20052;-67
2022/06/25 05:47:29;;;;;;;43.23;40.77;;;24.90;65.00;;;;;;5009951;28;20042;-67
2022/06/25 05:49:55;;;;;;;44.13;41.57;;;25.00;64.90;;;;;;5005684;28;20518;-67
2022/06/25 05:52:22;;;;;;;45.13;42.40;;;25.10;64.70;;;;;;4989440;28;20042;-67
2022/06/25 05:54:48;;;;;;;45.47;42.73;;;25.20;64.40;;;;;;5005184;28;20564;-67
2022/06/25 05:57:14;;;;;;;48.63;46.00;;;25.30;63.90;;;;;;5002834;28;20044;-67
2022/06/25 05:59:40;;;;;;;43.87;41.30;;;25.30;63.20;;;;;;5005023;28;20569;-67
2022/06/25 06:02:06;;;;;;;31.63;29.87;;;25.30;63.40;;;;;;5004154;28;20046;-67
2022/06/25 06:04:32;;;;;;;42.03;39.53;;;25.40;62.80;;;;;;4995070;28;20418;-68
2022/06/25 06:07:00;;;;;;;41.33;39.07;;;25.30;63.40;;;;;;5005927;28;20042;-68
2022/06/25 06:09:27;;;;;;;45.90;43.13;;;25.20;64.20;;;;;;5004551;28;20045;-68
2022/06/25 06:11:54;;;;;;;35.40;33.13;;;25.10;64.40;;;;;;5006505;28;20049;-68
2022/06/25 06:14:21;;;;;;;41.80;39.27;;;25.00;65.10;;;;;;5003139;28;20034;-68
2022/06/25 06:16:47;;;;;;;44.70;42.17;;;25.10;64.80;;;;;;5005165;28;20049;-68
2022/06/25 06:19:12;;;;;;;49.57;46.77;;;25.40;64.10;;;;;;5004343;28;20067;-68
2022/06/25 06:21:38;;;;;;;42.20;39.43;;;25.60;63.40;;;;;;5006631;28;20498;-68
2022/06/25 06:24:04;;;;;;;44.90;42.33;;;25.60;63.20;;;;;;5005989;28;20025;-68
2022/06/25 06:26:30;;;;;;;40.67;38.30;;;25.60;63.10;;;;;;4993915;28;20097;-68
2022/06/25 06:28:56;;;;;;;38.73;36.30;;;25.70;62.70;;;;;;4999950;28;20148;-68
2022/06/25 06:31:21;;;;;;;46.63;43.97;;;25.30;63.30;;;;;;5003412;28;20042;-68
2022/06/25 06:33:47;;;;;;;38.27;35.90;;;24.90;63.90;;;;;;5021982;28;20518;-67
2022/06/25 06:36:13;;;;;;;35.93;33.63;;;24.40;65.10;;;;;;4985971;28;20192;-68
2022/06/25 06:38:39;;;;;;;41.07;38.63;;;23.80;66.50;;;;;;5016172;28;20071;-68
2022/06/25 06:41:05;;;;;;;27.60;25.83;;;23.50;67.70;;;;;;5020944;28;20052;-67
2022/06/25 06:43:31;;;;;;;20.63;19.37;;;23.30;68.20;;;;;;5003979;28;20041;-67
2022/06/25 06:45:57;;;;;;;24.63;22.80;;;23.30;68.70;;;;;;4989013;28;20037;-67
2022/06/25 06:48:23;;;;;;;42.70;40.23;;;23.50;68.40;;;;;;5004990;28;20050;-68
2022/06/25 06:50:48;;;;;;;40.13;37.83;;;23.50;67.50;;;;;;5005333;28;20054;-68
2022/06/25 06:53:14;;;;;;;48.20;45.20;;;23.50;68.30;;;;;;5005500;28;20366;-67
2022/06/25 06:55:40;;;;;;;43.20;40.50;;;23.80;68.50;;;;;;4988187;28;20050;-68
2022/06/25 06:58:05;;;;;;;48.30;45.47;;;24.00;66.50;;;;;;4990597;28;20049;-68
2022/06/25 07:00:31;;;;;;;43.20;40.77;;;24.10;66.30;;;;;;5005021;28;20128;-68
2022/06/25 07:02:56;;;;;;;56.63;53.53;;;24.00;66.20;;;;;;5005272;28;20053;-69
2022/06/25 07:05:22;;;;;;;51.53;48.63;;;23.90;66.00;;;;;;5005118;28;20414;-68
2022/06/25 07:07:48;;;;;;;35.37;33.10;;;23.60;65.80;;;;;;5003387;28;20480;-68
2022/06/25 07:10:14;;;;;;;45.07;42.33;;;23.40;66.60;;;;;;5004399;28;20056;-68
2022/06/25 07:12:40;;;;;;;37.03;34.87;;;23.40;66.80;;;;;;4999598;28;20081;-68
2022/06/25 07:15:06;;;;;;;33.93;31.83;;;23.30;66.90;;;;;;5005480;28;20036;-68
2022/06/25 07:17:32;;;;;;;43.17;40.67;;;23.30;67.50;;;;;;5004367;28;20042;-68
2022/06/25 07:19:58;;;;;;;29.93;28.20;;;23.20;67.50;;;;;;5003651;28;20045;-68
2022/06/25 07:22:24;;;;;;;32.70;30.70;;;23.00;67.30;;;;;;5004404;28;20046;-68
2022/06/25 07:24:51;;;;;;;34.83;32.83;;;22.80;67.50;;;;;;5006023;28;20385;-68
2022/06/25 07:27:18;;;;;;;36.80;34.70;;;22.70;67.80;;;;;;5007113;28;20493;-68
2022/06/25 07:29:44;;;;;;;37.27;34.87;;;22.50;68.00;;;;;;4989664;28;20151;-68
2022/06/25 07:32:10;;;;;;;36.30;34.27;;;22.30;68.30;;;;;;5003622;28;20502;-68
2022/06/25 07:34:37;;;;;;;24.40;22.80;;;22.20;69.10;;;;;;5008853;28;20053;-68
2022/06/25 07:37:03;;;;;;;38.33;35.97;;;22.30;69.80;;;;;;5008332;28;20053;-68
2022/06/25 07:39:29;;;;;;;39.83;37.40;;;22.40;70.10;;;;;;5001463;28;20034;-68
2022/06/25 07:41:55;;;;;;;48.63;46.13;;;22.50;69.20;;;;;;5002734;28;20069;-68
2022/06/25 07:44:21;;;;;;;37.43;34.90;;;22.60;68.80;;;;;;5008045;28;20046;-68
2022/06/25 07:46:47;;;;;;;40.27;37.73;;;22.70;68.80;;;;;;5008203;28;20049;-68
2022/06/25 07:49:13;;;;;;;38.20;35.90;;;22.80;68.70;;;;;;4981691;28;20133;-68
2022/06/25 07:51:59;;;;;;;41.97;39.37;;;22.70;67.80;;;;;;5006905;28;20041;-68
2022/06/25 07:54:27;;;;;;;33.20;31.37;;;22.70;67.80;;;;;;5007278;28;20430;-68
2022/06/25 07:56:53;;;;;;;36.77;34.53;;;22.60;67.60;;;;;;5007564;28;20053;-68
2022/06/25 07:59:20;;;;;;;27.90;25.97;;;22.50;67.90;;;;;;5006075;28;20034;-68
2022/06/25 08:01:46;;;;;;;19.77;18.40;;;22.60;68.00;;;;;;4986737;28;20490;-68
2022/06/25 08:04:12;;;;;;;49.10;46.07;;;22.50;68.30;;;;;;4998268;28;20131;-68
2022/06/25 08:06:41;;;;;;;23.37;21.50;;;22.40;67.50;;;;;;4997037;28;20103;-68
2022/06/25 08:09:07;;;;;;;43.43;40.93;;;22.30;68.60;;;;;;5006866;28;20049;-68
2022/06/25 08:11:33;;;;;;;28.20;26.50;;;22.30;68.80;;;;;;5008607;28;20046;-68
2022/06/25 08:13:59;;;;;;;51.10;48.07;;;22.40;68.50;;;;;;5005025;28;20072;-68
2022/06/25 08:16:25;;;;;;;33.67;31.47;;;22.60;68.70;;;;;;5000867;28;20037;-68
2022/06/25 08:18:55;;;;;;;22.17;20.90;;;22.70;68.40;;;;;;5007730;28;20382;-68
2022/06/25 08:21:21;;;;;;;20.07;18.77;;;22.80;68.00;;;;;;5006903;28;20042;-68
2022/06/25 08:23:47;;;;;;;28.93;27.00;;;22.90;67.70;;;;;;4991381;28;20044;-68
2022/06/25 08:26:15;;;;;;;41.63;39.33;;;22.90;67.30;;;;;;5003416;28;20049;-69
2022/06/25 08:28:41;;;;;;;19.80;18.57;;;23.00;67.30;;;;;;5006695;28;20103;-69
2022/06/25 08:31:07;;;;;;;24.53;22.90;;;23.20;67.10;;;;;;5008033;28;20485;-69
2022/06/25 08:33:32;;;;;;;30.43;28.43;;;23.30;66.30;;;;;;5005707;28;20046;-69
2022/06/25 08:35:58;;;;;;;28.33;26.73;;;23.30;65.40;;;;;;5001643;28;20046;-69
2022/06/25 08:38:24;;;;;;;19.73;18.53;;;23.40;65.70;;;;;;5004212;28;20030;-69
2022/06/25 08:40:58;;;;;;;35.13;33.33;;;23.50;66.00;;;;;;5006349;28;20044;-69
2022/06/25 08:43:24;;;;;;;24.95;23.48;;;23.70;66.20;;;;;;5004545;28;20042;-69
2022/06/25 08:45:50;;;;;;;20.63;19.40;;;23.60;65.40;;;;;;5006451;28;21422;-69
2022/06/25 08:48:20;;;;;;;29.90;28.17;;;23.80;64.80;;;;;;5001498;28;20053;-69
2022/06/25 08:50:48;;;;;;;21.43;19.87;;;23.90;65.00;;;;;;4948319;28;20049;-69
2022/06/25 08:53:15;;;;;;;19.97;18.50;;;24.00;63.40;;;;;;5001966;28;20061;-69
2022/06/25 08:55:42;;;;;;;35.30;33.33;;;24.00;63.80;;;;;;4999102;28;20049;-69
2022/06/25 08:58:09;;;;;;;28.63;26.90;;;24.20;63.20;;;;;;4990407;28;20119;-69
2022/06/25 09:00:37;;;;;;;39.67;37.57;;;24.40;63.70;;;;;;5003799;28;20034;-69
2022/06/25 09:03:06;;;;;;;33.80;31.90;;;24.50;63.40;;;;;;5004884;28;20096;-69
2022/06/25 09:05:37;;;;;;;31.73;30.00;;;24.60;62.00;;;;;;5009490;28;20092;-69
2022/06/25 09:08:06;;;;;;;19.37;17.97;;;24.70;61.90;;;;;;4990934;28;20081;-69
2022/06/25 09:10:33;;;;;;;30.20;28.27;;;24.60;61.70;;;;;;5001856;28;20046;-69
2022/06/25 09:13:01;;;;;;;24.50;22.97;;;24.50;62.00;;;;;;5005083;28;20553;-69
2022/06/25 09:15:33;;;;;;;23.03;21.67;;;24.50;62.10;;;;;;5008226;28;20413;-69
2022/06/25 09:18:08;;;;;;;24.10;22.47;;;24.50;62.30;;;;;;5007357;28;20105;-69
2022/06/25 09:20:34;;;;;;;30.00;28.30;;;24.50;62.40;;;;;;5007125;28;20656;-69
2022/06/25 09:23:05;;;;;;;162.63;154.23;;;24.60;63.00;;;;;;5007973;28;20133;-69
2022/06/25 09:25:35;;;;;;;354.47;336.27;;;24.70;61.60;;;;;;5008320;28;20124;-69
2022/06/25 09:28:01;;;;;;;330.00;313.17;;;24.90;61.70;;;;;;4997528;28;20050;-69
2022/06/25 09:30:29;;;;;;;324.03;308.30;;;25.10;60.80;;;;;;5006669;28;20518;-69
2022/06/25 09:33:00;;;;;;;286.60;272.57;;;25.20;61.00;;;;;;5008001;28;20053;-69
2022/06/25 09:35:41;;;;;;;360.07;342.20;;;25.50;60.30;;;;;;4989700;28;20494;-70
2022/06/25 09:38:16;;;;;;;287.37;273.27;;;25.40;59.00;;;;;;5007792;28;20061;-69
2022/06/25 09:40:53;;;;;;;329.33;312.63;;;25.50;59.90;;;;;;5008521;28;20045;-69
2022/06/25 09:43:24;;;;;;;348.50;331.23;;;25.60;60.10;;;;;;5006841;28;20080;-69
2022/06/25 09:45:53;;;;;;;323.40;308.13;;;25.80;60.40;;;;;;5005700;28;20077;-70
2022/06/25 09:48:18;;;;;;;329.03;312.83;;;25.90;58.60;;;;;;4984506;28;20046;-70
2022/06/25 09:51:05;;;;;;;314.07;298.83;;;26.00;58.40;;;;;;4971209;28;20049;-69
2022/06/25 09:53:32;;;;;;;293.17;278.97;;;26.00;58.10;;;;;;4999782;28;20042;-69
2022/06/25 09:56:00;;;;;;;301.00;286.57;;;26.00;57.80;;;;;;5001306;28;20050;-70
2022/06/25 09:58:28;;;;;;;351.93;335.13;;;26.10;58.20;;;;;;5000393;28;20501;-70
2022/06/25 10:00:54;;;;;;;361.23;343.80;;;26.10;56.40;;;;;;4996441;28;21398;-70
2022/06/25 10:03:21;;;;;;;321.87;306.63;;;26.20;56.50;;;;;;5006914;28;20052;-70
2022/06/25 10:05:47;;;;;;;337.90;322.03;;;26.30;56.30;;;;;;5003147;28;20038;-70
2022/06/25 10:08:15;;;;;;;295.27;281.13;;;26.40;55.80;;;;;;4986699;28;20038;-70
2022/06/25 10:10:43;;;;;;;317.70;302.40;;;26.60;56.60;;;;;;5006052;28;20357;-70
2022/06/25 10:13:09;;;;;;;328.67;313.23;;;26.60;55.30;;;;;;4981444;28;20049;-69
2022/06/25 10:15:35;;;;;;;328.83;313.07;;;26.70;55.50;;;;;;5013151;28;20045;-69
2022/06/25 10:18:10;;;;;;;331.93;316.13;;;26.60;54.90;;;;;;4983543;28;20042;-69
2022/06/25 10:20:37;;;;;;;322.20;306.77;;;26.40;55.50;;;;;;5007083;28;20126;-70
2022/06/25 10:23:05;;;;;;;310.60;295.70;;;26.30;56.30;;;;;;4976978;28;20073;-69
2022/06/25 10:25:31;;;;;;;312.50;297.70;;;26.20;56.70;;;;;;4996264;28;20037;-69
2022/06/25 10:28:12;;;;;;;309.83;294.97;;;26.00;55.60;;;;;;5004465;28;20790;-69
2022/06/25 10:30:56;;;;;;;317.83;302.60;;;25.90;55.80;;;;;;4992859;28;20113;-69
2022/06/25 10:33:50;;;;;;;322.27;306.83;;;25.70;56.30;;;;;;4985559;28;20038;-69
2022/06/25 10:36:16;;;;;;;323.77;308.07;;;25.50;56.60;;;;;;5002668;28;20046;-69
2022/06/25 10:38:42;;;;;;;331.53;315.13;;;25.10;57.60;;;;;;5000177;28;20096;-69
2022/06/25 10:43:58;;;;;;;357.33;340.00;;;24.20;65.10;;;;;;5003590;28;20112;-69
2022/06/25 10:46:33;;;;;;;335.63;319.10;;;23.60;65.40;;;;;;5004489;28;20421;-70
2022/06/25 10:49:12;;;;;;;303.27;287.57;;;23.30;65.60;;;;;;5004262;28;20469;-69
2022/06/25 10:51:47;;;;;;;336.00;318.50;;;23.00;67.20;;;;;;4987757;28;20096;-70
2022/06/25 10:54:22;;;;;;;323.30;307.23;;;22.80;67.60;;;;;;4999121;28;20061;-70
2022/06/25 10:56:52;;;;;;;359.30;339.67;;;22.70;68.40;;;;;;5014863;28;20049;-68
2022/06/25 10:59:41;;;;;;;351.83;333.27;;;22.40;67.80;;;;;;5004733;28;20041;-68
2022/06/25 11:02:07;;;;;;;354.77;335.97;;;22.40;68.10;;;;;;4999208;28;20037;-68
2022/06/25 11:04:34;;;;;;;315.27;298.73;;;22.20;69.60;;;;;;4987342;28;20053;-68
2022/06/25 11:07:18;;;;;;;395.70;373.10;;;22.30;69.70;;;;;;5002928;28;20053;-68
2022/06/25 11:10:10;;;;;;;414.20;390.48;;;22.70;68.50;;;;;;4987135;28;20053;-69
2022/06/25 11:12:38;;;;;;;397.03;374.90;;;23.00;68.30;;;;;;4982191;28;20569;-70
2022/06/25 11:15:08;;;;;;;470.17;442.50;;;23.00;68.00;;;;;;4947195;28;20058;-70
2022/06/25 11:17:35;;;;;;;464.63;437.53;;;23.20;67.00;;;;;;4988616;28;20042;-70
2022/06/25 11:20:12;;;;;;;481.23;453.10;;;23.60;65.90;;;;;;5004029;28;20038;-69
2022/06/25 11:22:52;;;;;;;486.90;458.97;;;23.60;65.80;;;;;;5005584;28;20053;-70
2022/06/25 11:30:48;;;;;;;;;;;23.10;65.40;;;;;;4998756;28;20759;-69
2022/06/25 11:33:14;;;;;;;550.43;516.73;;;23.00;65.60;;;;;;5021090;28;20013;-70
2022/06/25 11:35:43;;;;;;;561.13;527.50;;;22.80;66.60;;;;;;4992348;28;20034;-70
2022/06/25 11:38:20;;;;;;;520.43;489.90;;;22.70;67.20;;;;;;4977620;28;20034;-70
2022/06/25 11:40:46;;;;;;;515.73;483.07;;;22.60;68.50;;;;;;4970836;28;20042;-68
2022/06/25 11:43:13;;;;;;;570.57;533.90;;;22.30;69.90;;;;;;4983478;28;20049;-68
2022/06/25 11:45:51;;;;;;;564.63;527.20;;;22.20;70.50;;;;;;4983502;28;20479;-68
2022/06/25 11:48:17;;;;;;;454.07;425.47;;;22.00;70.50;;;;;;5014636;28;20104;-68
2022/06/25 11:50:43;;;;;;;477.90;446.80;;;21.80;71.70;;;;;;4984821;28;20406;-68
2022/06/25 11:53:09;;;;;;;373.63;349.40;;;21.70;72.00;;;;;;5016123;28;20066;-68
2022/06/25 11:55:38;;;;;;;488.37;456.33;;;21.60;71.60;;;;;;5005033;28;20077;-68
2022/06/25 11:58:04;;;;;;;454.67;426.03;;;21.60;72.80;;;;;;5001587;28;20041;-69
2022/06/25 12:00:30;;;;;;;493.53;462.13;;;21.80;72.60;;;;;;4996930;28;20136;-69
2022/06/25 12:03:05;;;;;;;484.00;451.73;;;22.00;72.40;;;;;;5014095;28;20117;-69
2022/06/25 12:05:34;;;;;;;510.67;477.63;;;22.40;71.40;;;;;;5020906;28;20123;-69
2022/06/25 12:08:00;;;;;;;598.43;558.23;;;22.70;71.00;;;;;;4978814;28;20042;-68
2022/06/25 12:10:28;;;;;;;626.27;583.20;;;23.00;69.60;;;;;;5004105;28;20095;-68
2022/06/25 12:12:54;;;;;;;649.23;603.53;;;23.10;68.20;;;;;;5003235;28;20041;-68
2022/06/25 12:15:28;;;;;;;692.17;643.93;;;23.00;68.60;;;;;;5006332;28;20046;-70
2022/06/25 12:18:05;;;;;;;597.15;553.97;;;23.10;68.40;;;;;;5007614;28;20038;-70
2022/06/25 12:20:31;;;;;;;646.77;600.57;;;23.40;68.40;;;;;;5007129;28;20561;-70
2022/06/25 12:22:57;;;;;;;679.07;629.70;;;23.50;67.40;;;;;;4998487;28;20048;-70
2022/06/25 12:25:24;;;;;;;594.73;553.63;;;23.60;67.50;;;;;;5001066;28;20052;-70
2022/06/25 12:27:51;;;;;;;649.47;604.07;;;23.90;68.40;;;;;;5005042;28;20092;-70
2022/06/25 12:30:35;;;;;;;654.37;608.63;;;24.20;66.50;;;;;;4985539;28;20483;-70
2022/06/25 12:33:05;;;;;;;564.87;526.37;;;24.40;64.90;;;;;;5005396;28;20030;-70
2022/06/25 12:35:33;;;;;;;572.93;534.67;;;24.60;64.80;;;;;;4990443;28;20100;-70